Time;durP1;ratioP1;P1;durP2;ratioP2;P2;SDS_P1;SDS_P2;PMS_P1;PMS_P2;Temp;Humidity;BMP_temperature;BMP_pressure;BME280_temperature;BME280_humidity;BME280_pressure;Samples;Min_cycle;Max_cycle;Signal;HPM_P1;HPM_P2
2023/09/09 00:00:48;;;;;;;874.30;793.88;;;18.10;78.90;;;;;;5015570;28;20056;-70
2023/09/09 00:03:14;;;;;;;861.80;780.63;;;18.00;79.00;;;;;;5051232;28;20045;-69
2023/09/09 00:05:40;;;;;;;913.90;828.45;;;18.00;78.90;;;;;;5051100;28;20053;-69
2023/09/09 00:08:06;;;;;;;869.55;789.53;;;18.00;78.90;;;;;;5041066;28;20045;-68
2023/09/09 00:10:36;;;;;;;910.97;827.28;;;17.90;78.80;;;;;;5052454;28;20049;-70
2023/09/09 00:13:03;;;;;;;899.22;814.45;;;17.80;78.90;;;;;;5052002;28;20053;-69
2023/09/09 00:15:30;;;;;;;882.33;799.88;;;17.80;78.90;;;;;;5033743;28;20085;-70
2023/09/09 00:17:56;;;;;;;955.40;867.05;;;17.80;78.90;;;;;;5039124;28;20597;-69
2023/09/09 00:20:36;;;;;;;877.58;795.63;;;17.80;79.00;;;;;;5051534;28;20124;-70
2023/09/09 00:23:08;;;;;;;854.00;775.08;;;17.80;79.10;;;;;;5051355;28;20045;-70
2023/09/09 00:25:36;;;;;;;893.92;810.65;;;17.80;79.00;;;;;;5051943;28;20037;-71
2023/09/09 00:28:02;;;;;;;919.70;835.38;;;17.80;79.20;;;;;;5039691;28;20152;-70
2023/09/09 00:30:28;;;;;;;864.35;785.03;;;17.80;79.50;;;;;;5033779;28;20044;-70
2023/09/09 00:32:54;;;;;;;892.03;808.85;;;17.70;79.60;;;;;;5051576;28;20051;-69
2023/09/09 00:35:20;;;;;;;873.33;790.58;;;17.60;79.60;;;;;;5051775;28;20045;-69
2023/09/09 00:37:46;;;;;;;885.65;801.67;;;17.70;79.80;;;;;;5040470;28;20045;-69
2023/09/09 00:40:12;;;;;;;875.97;794.63;;;17.70;79.70;;;;;;5051310;28;20506;-67
2023/09/09 00:42:38;;;;;;;881.40;798.22;;;17.60;79.80;;;;;;5033585;28;20049;-69
2023/09/09 00:45:04;;;;;;;855.42;779.67;;;17.60;79.70;;;;;;5052011;28;20122;-69
2023/09/09 00:47:31;;;;;;;881.80;800.58;;;17.60;79.80;;;;;;5021482;28;20125;-70
2023/09/09 00:49:58;;;;;;;882.55;800.33;;;17.60;79.80;;;;;;5051777;28;20053;-70
2023/09/09 00:52:24;;;;;;;805.40;736.80;;;17.60;79.90;;;;;;5050596;28;20045;-70
2023/09/09 00:54:50;;;;;;;858.30;779.85;;;17.60;80.00;;;;;;5033225;28;20474;-70
2023/09/09 00:57:17;;;;;;;864.63;784.65;;;17.60;80.00;;;;;;5039591;28;20045;-70
2023/09/09 00:59:43;;;;;;;869.13;789.92;;;17.60;80.10;;;;;;5051016;28;20476;-69
2023/09/09 01:02:08;;;;;;;915.60;827.58;;;17.60;80.20;;;;;;5049644;28;20080;-69
2023/09/09 01:04:35;;;;;;;899.13;815.47;;;17.60;80.20;;;;;;5051730;28;20095;-70
2023/09/09 01:07:01;;;;;;;857.63;778.00;;;17.60;80.40;;;;;;5021449;28;20048;-67
2023/09/09 01:09:29;;;;;;;915.75;829.70;;;17.60;80.40;;;;;;5051293;28;20088;-70
2023/09/09 01:11:55;;;;;;;896.75;811.70;;;17.50;80.40;;;;;;5032486;28;20049;-70
2023/09/09 01:14:21;;;;;;;884.65;802.05;;;17.60;80.30;;;;;;5050768;28;20462;-69
2023/09/09 01:16:50;;;;;;;889.72;808.05;;;17.50;80.30;;;;;;5038632;28;20265;-70
2023/09/09 01:19:19;;;;;;;923.72;837.85;;;17.50;80.30;;;;;;5048881;28;20124;-68
2023/09/09 01:21:46;;;;;;;851.40;775.17;;;17.50;80.30;;;;;;5032623;28;20040;-70
2023/09/09 01:24:16;;;;;;;899.67;818.90;;;17.50;80.40;;;;;;5058380;28;20484;-70
2023/09/09 01:26:45;;;;;;;917.40;829.80;;;17.60;80.30;;;;;;5039651;28;20110;-70
2023/09/09 01:29:11;;;;;;;891.53;808.50;;;17.60;80.30;;;;;;5047042;28;20045;-69
2023/09/09 01:31:37;;;;;;;897.45;813.45;;;17.50;80.30;;;;;;5049632;28;20045;-70
2023/09/09 01:34:03;;;;;;;880.90;802.88;;;17.60;80.30;;;;;;5050439;28;20134;-69
2023/09/09 01:36:29;;;;;;;861.63;785.00;;;17.50;80.20;;;;;;5021194;28;20492;-69
2023/09/09 01:38:54;;;;;;;861.92;780.92;;;17.50;80.40;;;;;;5032548;28;20040;-70
2023/09/09 01:41:20;;;;;;;863.13;783.15;;;17.50;80.50;;;;;;5037235;28;20051;-70
2023/09/09 01:43:46;;;;;;;826.38;753.25;;;17.50;80.30;;;;;;5031894;28;20689;-68
2023/09/09 01:46:12;;;;;;;897.75;810.88;;;17.50;80.40;;;;;;5040355;28;20052;-70
2023/09/09 01:48:38;;;;;;;867.63;782.90;;;17.50;80.40;;;;;;5049155;28;20124;-70
2023/09/09 01:51:05;;;;;;;806.17;737.50;;;17.50;80.40;;;;;;5046753;28;20057;-70
2023/09/09 01:53:31;;;;;;;833.22;756.60;;;17.50;80.40;;;;;;5047929;28;20092;-69
2023/09/09 01:55:58;;;;;;;850.00;773.45;;;17.50;80.30;;;;;;5049388;28;20072;-70
2023/09/09 01:58:24;;;;;;;798.75;728.05;;;17.50;80.40;;;;;;5037497;28;20575;-68
2023/09/09 02:00:49;;;;;;;822.10;748.17;;;17.50;80.50;;;;;;5050360;28;20163;-70
2023/09/09 02:03:15;;;;;;;865.38;782.88;;;17.50;80.40;;;;;;5049153;28;20055;-70
2023/09/09 02:05:41;;;;;;;819.03;744.08;;;17.50;80.40;;;;;;5016221;28;20041;-70
2023/09/09 02:08:07;;;;;;;794.10;724.72;;;17.50;80.50;;;;;;5017130;28;20054;-70
2023/09/09 02:10:32;;;;;;;803.35;734.33;;;17.40;80.50;;;;;;5048935;28;20296;-69
2023/09/09 02:12:58;;;;;;;863.70;782.17;;;17.40;80.50;;;;;;5049538;28;20049;-70
2023/09/09 02:15:24;;;;;;;845.97;767.25;;;17.40;80.50;;;;;;5049513;28;20052;-70
2023/09/09 02:17:50;;;;;;;848.05;770.80;;;17.40;80.50;;;;;;5037198;28;20040;-70
2023/09/09 02:20:16;;;;;;;821.92;746.45;;;17.40;80.50;;;;;;5049992;28;20536;-69
2023/09/09 02:22:42;;;;;;;829.28;755.10;;;17.40;80.50;;;;;;5048262;28;20491;-69
2023/09/09 02:25:08;;;;;;;857.50;775.65;;;17.40;80.50;;;;;;5036020;28;20045;-70
2023/09/09 02:27:34;;;;;;;884.38;797.72;;;17.40;80.60;;;;;;5035165;28;20042;-70
2023/09/09 02:30:01;;;;;;;847.17;768.40;;;17.40;80.60;;;;;;5049326;28;20052;-68
2023/09/09 02:32:26;;;;;;;835.80;757.30;;;17.30;80.60;;;;;;5015389;28;20041;-70
2023/09/09 02:34:52;;;;;;;822.78;745.80;;;17.30;80.60;;;;;;5049188;28;20523;-69
2023/09/09 02:37:20;;;;;;;827.67;750.50;;;17.30;80.70;;;;;;5037478;28;20045;-69
2023/09/09 02:39:50;;;;;;;896.08;804.55;;;17.20;80.60;;;;;;5049673;28;20411;-69
2023/09/09 02:42:20;;;;;;;903.22;812.35;;;17.20;80.60;;;;;;5048885;28;20107;-69
2023/09/09 02:44:47;;;;;;;883.03;797.92;;;17.20;80.50;;;;;;5049686;28;20075;-68
2023/09/09 02:47:13;;;;;;;798.13;728.25;;;17.20;80.50;;;;;;5037522;28;20131;-68
2023/09/09 02:49:39;;;;;;;882.28;792.75;;;17.20;80.60;;;;;;5031664;28;20230;-69
2023/09/09 02:52:09;;;;;;;968.60;864.38;;;17.20;80.70;;;;;;5048003;28;20590;-70
2023/09/09 02:54:35;;;;;;;854.78;775.50;;;17.20;80.70;;;;;;5036315;28;20051;-70
2023/09/09 02:57:03;;;;;;;803.83;736.47;;;17.20;80.60;;;;;;5038176;28;20053;-67
2023/09/09 02:59:35;;;;;;;857.03;768.30;;;17.20;80.70;;;;;;5049464;28;20491;-70
2023/09/09 03:02:01;;;;;;;862.72;777.58;;;17.20;80.70;;;;;;5031884;28;20053;-63
2023/09/09 03:04:27;;;;;;;870.15;789.45;;;17.20;80.80;;;;;;5031800;28;20179;-70
2023/09/09 03:06:53;;;;;;;823.08;743.15;;;17.20;80.70;;;;;;5038329;28;20466;-69
2023/09/09 03:09:20;;;;;;;810.13;737.42;;;17.20;80.80;;;;;;5031116;28;20048;-69
2023/09/09 03:11:46;;;;;;;834.08;754.60;;;17.10;80.90;;;;;;5036347;28;20088;-69
2023/09/09 03:14:12;;;;;;;784.70;713.67;;;17.00;80.80;;;;;;5048923;28;20157;-70
2023/09/09 03:16:38;;;;;;;937.60;841.35;;;17.00;80.90;;;;;;5037655;28;20051;-70
2023/09/09 03:19:04;;;;;;;927.72;830.40;;;17.00;80.80;;;;;;5048211;28;20064;-70
2023/09/09 03:21:30;;;;;;;847.70;766.30;;;17.00;80.80;;;;;;5032013;28;20044;-70
2023/09/09 03:23:56;;;;;;;911.53;816.80;;;17.00;80.90;;;;;;5048621;28;20055;-69
2023/09/09 03:26:22;;;;;;;828.03;750.55;;;17.00;80.90;;;;;;5037583;28;20624;-69
2023/09/09 03:28:51;;;;;;;881.53;791.85;;;17.00;80.80;;;;;;5047498;28;20068;-69
2023/09/09 03:31:17;;;;;;;869.65;780.13;;;17.00;80.80;;;;;;5032076;28;20045;-69
2023/09/09 03:33:43;;;;;;;893.95;800.90;;;17.00;80.80;;;;;;5048951;28;20063;-69
2023/09/09 03:36:09;;;;;;;878.50;790.38;;;17.00;80.80;;;;;;5042299;28;20411;-69
2023/09/09 03:38:36;;;;;;;844.08;763.33;;;17.00;80.80;;;;;;5040608;28;20136;-70
2023/09/09 03:41:05;;;;;;;791.42;720.03;;;17.00;80.70;;;;;;5053437;28;20137;-70
2023/09/09 03:43:31;;;;;;;877.45;787.05;;;17.00;80.70;;;;;;5053051;28;20442;-69
2023/09/09 03:45:57;;;;;;;904.33;808.55;;;17.00;80.80;;;;;;5053382;28;20051;-70
2023/09/09 03:48:24;;;;;;;888.75;794.33;;;17.00;80.80;;;;;;5040525;28;20077;-70
2023/09/09 03:50:50;;;;;;;857.22;769.15;;;17.00;80.80;;;;;;5052114;28;20053;-70
2023/09/09 03:53:15;;;;;;;853.80;765.72;;;17.00;81.00;;;;;;5039740;28;20061;-68
2023/09/09 03:55:41;;;;;;;912.30;811.63;;;17.00;81.20;;;;;;5052761;28;20053;-68
2023/09/09 03:58:07;;;;;;;871.10;779.13;;;17.00;81.10;;;;;;5041032;28;20081;-69
2023/09/09 04:00:33;;;;;;;773.72;703.88;;;17.00;81.30;;;;;;5052544;28;20124;-70
2023/09/09 04:02:59;;;;;;;783.17;709.15;;;17.00;81.20;;;;;;5039843;28;20118;-70
2023/09/09 04:05:25;;;;;;;849.20;764.72;;;17.00;81.20;;;;;;5050377;28;20045;-68
2023/09/09 04:07:51;;;;;;;926.95;825.50;;;17.00;81.20;;;;;;5040394;28;20098;-70
2023/09/09 04:10:17;;;;;;;913.50;815.90;;;17.00;81.10;;;;;;5052415;28;20603;-69
2023/09/09 04:12:43;;;;;;;827.20;746.35;;;17.00;81.10;;;;;;5048464;28;20052;-70
2023/09/09 04:15:10;;;;;;;868.22;779.83;;;17.00;81.00;;;;;;5046501;28;20064;-70
2023/09/09 04:17:36;;;;;;;792.65;718.72;;;16.90;81.10;;;;;;5039605;28;20045;-64
2023/09/09 04:20:03;;;;;;;848.92;764.20;;;16.90;81.00;;;;;;5049915;28;20059;-70
2023/09/09 04:22:29;;;;;;;806.17;730.15;;;16.90;80.90;;;;;;5052594;28;20411;-70
2023/09/09 04:24:55;;;;;;;825.78;748.78;;;16.90;80.80;;;;;;5051467;28;20045;-70
2023/09/09 04:27:21;;;;;;;903.25;810.03;;;16.80;80.90;;;;;;5045132;28;20091;-69
2023/09/09 04:29:47;;;;;;;852.55;764.33;;;16.80;80.70;;;;;;5032663;28;20053;-68
2023/09/09 04:32:13;;;;;;;844.55;759.10;;;16.80;80.70;;;;;;5016812;28;20387;-69
2023/09/09 04:34:38;;;;;;;878.80;784.20;;;16.80;81.10;;;;;;5050097;28;20068;-70
2023/09/09 04:37:04;;;;;;;878.83;786.30;;;16.80;81.20;;;;;;5032245;28;20041;-71
2023/09/09 04:39:30;;;;;;;844.53;760.58;;;16.80;80.90;;;;;;5049163;28;20036;-70
2023/09/09 04:41:56;;;;;;;812.90;728.67;;;16.80;81.00;;;;;;5055858;28;20619;-69
2023/09/09 04:44:22;;;;;;;852.47;768.05;;;16.70;81.10;;;;;;5030319;28;20046;-68
2023/09/09 04:46:47;;;;;;;923.83;827.55;;;16.70;81.30;;;;;;5021226;28;20045;-68
2023/09/09 04:49:15;;;;;;;863.47;774.75;;;16.70;81.10;;;;;;5050024;28;20135;-70
2023/09/09 04:51:41;;;;;;;903.78;805.13;;;16.70;81.10;;;;;;5050847;28;20068;-70
2023/09/09 04:54:06;;;;;;;843.78;761.08;;;16.70;81.10;;;;;;5040215;28;20103;-68
2023/09/09 04:56:32;;;;;;;852.83;761.08;;;16.60;81.10;;;;;;5021726;28;20041;-70
2023/09/09 04:58:58;;;;;;;811.83;728.65;;;16.60;81.00;;;;;;5050559;28;20059;-70
2023/09/09 05:01:23;;;;;;;862.05;776.95;;;16.60;81.00;;;;;;5036348;28;20045;-68
2023/09/09 05:03:49;;;;;;;843.03;757.30;;;16.60;81.00;;;;;;5048950;28;20045;-70
2023/09/09 05:06:15;;;;;;;833.55;742.83;;;16.60;81.10;;;;;;5022012;28;20056;-68
2023/09/09 05:08:40;;;;;;;876.20;785.92;;;16.60;81.30;;;;;;5049122;28;20056;-70
2023/09/09 05:11:06;;;;;;;877.45;778.58;;;16.60;81.50;;;;;;5050196;28;20353;-69
2023/09/09 05:13:32;;;;;;;838.88;749.38;;;16.60;81.30;;;;;;5049630;28;20049;-70
2023/09/09 05:15:58;;;;;;;853.50;763.85;;;16.60;81.20;;;;;;5049947;28;20091;-70
2023/09/09 05:18:23;;;;;;;898.45;806.95;;;16.60;81.20;;;;;;5037008;28;20056;-69
2023/09/09 05:20:49;;;;;;;893.88;776.60;;;16.60;81.40;;;;;;5043588;28;20048;-67
2023/09/09 05:23:15;;;;;;;815.38;731.25;;;16.60;81.40;;;;;;5050943;28;20051;-68
2023/09/09 05:25:41;;;;;;;883.92;785.17;;;16.70;81.40;;;;;;5031563;28;20045;-70
2023/09/09 05:28:07;;;;;;;884.03;784.40;;;16.70;81.40;;;;;;5039534;28;20058;-66
2023/09/09 05:30:33;;;;;;;870.25;771.38;;;16.70;81.40;;;;;;5049657;28;20055;-70
2023/09/09 05:32:58;;;;;;;819.75;730.42;;;16.70;81.30;;;;;;5044371;28;20458;-69
2023/09/09 05:35:24;;;;;;;828.05;738.88;;;16.70;81.50;;;;;;5048021;28;20595;-68
2023/09/09 05:37:50;;;;;;;868.97;779.60;;;16.70;81.60;;;;;;5037843;28;20040;-70
2023/09/09 05:40:16;;;;;;;878.72;783.08;;;16.80;81.60;;;;;;5047300;28;20459;-70
2023/09/09 05:42:41;;;;;;;842.28;752.15;;;16.70;81.60;;;;;;5048930;28;20124;-70
2023/09/09 05:45:11;;;;;;;832.05;751.15;;;16.70;81.60;;;;;;5045306;28;20060;-70
2023/09/09 05:47:37;;;;;;;835.42;743.08;;;16.70;81.60;;;;;;5037647;28;20045;-67
2023/09/09 05:50:05;;;;;;;808.47;726.30;;;16.80;81.60;;;;;;5049420;28;20057;-70
2023/09/09 05:52:31;;;;;;;851.28;747.58;;;16.80;81.70;;;;;;5030480;28;20040;-68
2023/09/09 05:54:56;;;;;;;833.55;728.10;;;16.80;81.70;;;;;;5049539;28;20033;-70
2023/09/09 05:57:22;;;;;;;827.95;736.75;;;16.90;81.90;;;;;;5037242;28;20045;-68
2023/09/09 05:59:48;;;;;;;862.15;768.03;;;17.00;82.10;;;;;;5035384;28;20064;-68
2023/09/09 06:02:13;;;;;;;869.13;774.70;;;17.00;82.20;;;;;;5048168;28;20047;-70
2023/09/09 06:04:39;;;;;;;842.90;755.75;;;17.10;82.40;;;;;;5047744;28;20123;-69
2023/09/09 06:07:05;;;;;;;869.10;774.30;;;17.20;82.40;;;;;;5037605;28;20055;-70
2023/09/09 06:09:31;;;;;;;892.50;799.05;;;17.30;82.30;;;;;;5048578;28;20099;-70
2023/09/09 06:11:56;;;;;;;846.78;764.15;;;17.40;82.50;;;;;;5049630;28;20041;-70
2023/09/09 06:14:22;;;;;;;860.75;771.53;;;17.50;82.40;;;;;;5046875;28;20049;-70
2023/09/09 06:16:48;;;;;;;892.65;798.13;;;17.60;82.30;;;;;;5019789;28;20119;-70
2023/09/09 06:19:13;;;;;;;911.03;818.42;;;17.70;82.20;;;;;;5030627;28;20105;-70
2023/09/09 06:21:39;;;;;;;916.65;820.83;;;17.80;82.10;;;;;;5048732;28;20052;-68
2023/09/09 06:24:07;;;;;;;920.05;822.75;;;17.80;82.10;;;;;;5027976;28;20099;-69
2023/09/09 06:26:33;;;;;;;918.72;819.47;;;17.80;82.10;;;;;;5038101;28;20594;-70
2023/09/09 06:29:00;;;;;;;946.67;845.45;;;17.90;82.10;;;;;;5047821;28;20049;-68
2023/09/09 06:31:26;;;;;;;925.55;827.25;;;18.00;82.10;;;;;;5049423;28;20049;-69
2023/09/09 06:33:52;;;;;;;917.03;819.13;;;18.00;82.10;;;;;;5027491;28;20381;-70
2023/09/09 06:36:20;;;;;;;960.45;852.00;;;18.00;82.00;;;;;;5011139;28;20380;-70
2023/09/09 06:38:47;;;;;;;947.25;841.35;;;18.10;81.80;;;;;;5047528;28;20061;-70
2023/09/09 06:41:13;;;;;;;948.13;845.15;;;18.10;81.80;;;;;;5032294;28;20127;-66
2023/09/09 06:43:39;;;;;;;930.95;833.63;;;18.10;81.80;;;;;;5048481;28;20613;-63
2023/09/09 06:46:04;;;;;;;957.17;852.65;;;18.20;81.70;;;;;;5024744;28;20146;-66
2023/09/09 06:48:30;;;;;;;949.20;846.65;;;18.20;81.70;;;;;;5024311;28;20527;-70
2023/09/09 06:50:56;;;;;;;944.22;844.45;;;18.20;81.60;;;;;;5048624;28;20045;-70
2023/09/09 06:53:24;;;;;;;953.15;849.97;;;18.30;81.60;;;;;;5027590;28;20056;-70
2023/09/09 06:55:51;;;;;;;921.95;825.80;;;18.30;81.50;;;;;;5049993;28;20169;-69
2023/09/09 06:58:16;;;;;;;956.67;854.83;;;18.30;81.50;;;;;;5009826;28;20124;-70
2023/09/09 07:00:48;;;;;;;916.33;818.55;;;18.40;81.50;;;;;;5048179;28;20615;-70
2023/09/09 07:03:14;;;;;;;965.50;865.50;;;18.40;81.60;;;;;;5047212;28;20121;-68
2023/09/09 07:05:39;;;;;;;953.08;849.90;;;18.50;81.50;;;;;;5030178;28;20056;-69
2023/09/09 07:08:05;;;;;;;939.15;841.88;;;18.50;81.50;;;;;;5034646;28;20052;-70
2023/09/09 07:10:31;;;;;;;952.60;853.03;;;18.50;81.60;;;;;;5050564;28;20045;-68
2023/09/09 07:12:57;;;;;;;976.08;874.33;;;18.60;81.60;;;;;;5047178;28;20407;-70
2023/09/09 07:15:22;;;;;;;972.00;869.60;;;18.60;81.60;;;;;;5048486;28;20045;-69
2023/09/09 07:17:48;;;;;;;959.50;859.25;;;18.60;81.60;;;;;;5033995;28;20099;-68
2023/09/09 07:20:15;;;;;;;978.20;874.47;;;18.70;81.60;;;;;;5047915;28;20478;-68
2023/09/09 07:22:41;;;;;;;973.15;871.28;;;18.80;81.50;;;;;;5029195;28;20187;-70
2023/09/09 07:25:08;;;;;;;963.00;862.20;;;18.80;81.50;;;;;;5048232;28;20128;-70
2023/09/09 07:27:33;;;;;;;978.65;872.28;;;18.90;81.50;;;;;;5032605;28;20037;-70
2023/09/09 07:29:59;;;;;;;972.03;871.03;;;19.00;81.50;;;;;;5047660;28;20051;-70
2023/09/09 07:32:25;;;;;;;992.83;889.22;;;19.00;81.50;;;;;;5047421;28;20073;-70
2023/09/09 07:34:51;;;;;;;992.05;890.30;;;19.10;81.50;;;;;;5047337;28;20041;-70
2023/09/09 07:37:17;;;;;;;972.03;874.92;;;19.10;81.60;;;;;;5036803;28;20530;-70
2023/09/09 07:40:01;;;;;;;992.50;888.35;;;19.20;81.60;;;;;;5048408;28;20052;-70
2023/09/09 07:42:26;;;;;;;965.38;865.70;;;19.30;81.60;;;;;;5047311;28;20045;-70
2023/09/09 07:44:53;;;;;;;970.15;874.78;;;19.40;81.50;;;;;;5048020;28;20040;-70
2023/09/09 07:47:20;;;;;;;983.33;883.25;;;19.40;81.50;;;;;;5036557;28;20060;-67
2023/09/09 07:49:46;;;;;;;944.13;850.35;;;19.50;81.50;;;;;;5048315;28;20187;-70
2023/09/09 07:52:12;;;;;;;980.30;877.28;;;19.60;81.50;;;;;;5015342;28;20476;-70
2023/09/09 07:54:38;;;;;;;952.50;858.28;;;19.70;81.40;;;;;;5045451;28;20052;-69
2023/09/09 07:57:04;;;;;;;962.58;871.83;;;19.70;81.30;;;;;;5041288;28;20110;-70
2023/09/09 07:59:30;;;;;;;897.28;813.50;;;19.80;81.40;;;;;;5047395;28;20123;-70
2023/09/09 08:01:56;;;;;;;899.83;815.95;;;19.90;81.20;;;;;;5054931;28;20052;-70
2023/09/09 08:04:22;;;;;;;871.13;791.28;;;20.00;81.20;;;;;;5023657;28;20385;-70
2023/09/09 08:06:50;;;;;;;917.53;829.30;;;20.10;81.10;;;;;;5031026;28;20450;-70
2023/09/09 08:09:16;;;;;;;930.75;841.22;;;20.20;81.00;;;;;;5043001;28;20041;-71
2023/09/09 08:11:41;;;;;;;920.45;835.60;;;20.30;81.00;;;;;;5044084;28;20115;-71
2023/09/09 08:14:07;;;;;;;907.70;822.72;;;20.40;80.90;;;;;;5047440;28;20114;-69
2023/09/09 08:16:33;;;;;;;954.63;861.72;;;20.50;80.70;;;;;;5018287;28;20073;-69
2023/09/09 08:18:59;;;;;;;910.28;825.63;;;20.60;80.50;;;;;;5049534;28;20041;-69
2023/09/09 08:21:25;;;;;;;919.33;833.15;;;20.70;80.30;;;;;;5031202;28;20140;-68
2023/09/09 08:23:52;;;;;;;968.00;870.65;;;20.90;80.30;;;;;;5050688;28;20140;-70
2023/09/09 08:26:18;;;;;;;910.72;829.30;;;21.00;80.10;;;;;;5037925;28;20454;-68
2023/09/09 08:28:43;;;;;;;948.78;856.63;;;21.10;79.80;;;;;;5047640;28;20049;-71
2023/09/09 08:31:09;;;;;;;935.85;849.10;;;21.10;79.80;;;;;;5046648;28;20053;-70
2023/09/09 08:33:35;;;;;;;937.88;849.65;;;21.30;79.60;;;;;;5047308;28;20139;-71
2023/09/09 08:36:05;;;;;;;938.28;849.72;;;21.40;79.50;;;;;;5046874;28;20049;-70
2023/09/09 08:38:31;;;;;;;924.45;837.85;;;21.50;79.40;;;;;;5043057;28;20428;-71
2023/09/09 08:41:11;;;;;;;933.08;843.88;;;21.50;79.30;;;;;;5048662;28;20491;-71
2023/09/09 08:44:10;;;;;;;961.28;866.22;;;21.70;79.10;;;;;;5032355;28;20111;-71
2023/09/09 08:46:36;;;;;;;922.70;833.28;;;21.80;79.00;;;;;;5028677;28;20048;-68
2023/09/09 08:49:06;;;;;;;901.70;818.40;;;21.90;79.00;;;;;;5046866;28;20052;-71
2023/09/09 08:51:40;;;;;;;885.38;806.60;;;21.90;78.90;;;;;;5048816;28;20045;-69
2023/09/09 08:54:08;;;;;;;898.45;815.88;;;22.00;78.70;;;;;;5056779;28;20053;-70
2023/09/09 08:56:35;;;;;;;899.30;816.53;;;22.10;78.50;;;;;;5025168;28;20053;-65
2023/09/09 08:59:01;;;;;;;904.17;822.40;;;22.20;78.20;;;;;;5034499;28;20511;-70
2023/09/09 09:01:27;;;;;;;920.75;834.15;;;22.30;78.20;;;;;;5022063;28;20052;-71
2023/09/09 09:03:54;;;;;;;931.42;841.40;;;22.30;78.30;;;;;;5031611;28;20042;-72
2023/09/09 09:06:21;;;;;;;932.10;842.92;;;22.50;78.30;;;;;;5022918;28;20136;-69
2023/09/09 09:08:46;;;;;;;872.80;796.40;;;22.50;78.20;;;;;;5035291;28;20504;-71
2023/09/09 09:11:13;;;;;;;911.25;828.03;;;22.60;78.10;;;;;;5034141;28;20060;-70
2023/09/09 09:13:38;;;;;;;919.67;834.95;;;22.60;78.00;;;;;;5030759;28;20068;-67
2023/09/09 09:16:04;;;;;;;895.22;815.22;;;22.70;77.80;;;;;;5029607;28;20053;-63
2023/09/09 09:18:30;;;;;;;873.75;796.10;;;22.80;77.70;;;;;;5027788;28;20413;-71
2023/09/09 09:21:06;;;;;;;910.85;825.40;;;22.90;77.60;;;;;;5032393;28;20389;-69
2023/09/09 09:23:32;;;;;;;899.38;817.55;;;22.90;77.50;;;;;;5038338;28;20057;-71
2023/09/09 09:25:57;;;;;;;902.10;819.63;;;23.00;77.50;;;;;;5040564;28;20361;-71
2023/09/09 09:28:28;;;;;;;887.95;807.92;;;23.10;77.40;;;;;;5010097;28;20057;-69
2023/09/09 09:30:53;;;;;;;903.80;819.63;;;23.30;77.20;;;;;;5034717;28;20041;-70
2023/09/09 09:33:30;;;;;;;909.97;825.15;;;23.30;76.90;;;;;;5036706;28;20052;-69
2023/09/09 09:35:59;;;;;;;926.22;840.25;;;23.40;76.20;;;;;;5046377;28;20412;-69
2023/09/09 09:38:25;;;;;;;883.80;802.50;;;23.50;76.20;;;;;;5036660;28;20080;-69
2023/09/09 09:40:59;;;;;;;888.90;807.90;;;23.60;76.40;;;;;;5051356;28;20123;-69
2023/09/09 09:43:25;;;;;;;853.35;778.00;;;23.60;76.00;;;;;;5047582;28;20048;-71
2023/09/09 09:45:51;;;;;;;899.30;819.25;;;23.60;76.00;;;;;;5048368;28;20094;-71
2023/09/09 09:48:27;;;;;;;912.63;828.40;;;23.70;75.70;;;;;;5038596;28;20501;-71
2023/09/09 09:50:53;;;;;;;908.15;825.80;;;23.80;75.60;;;;;;5032236;28;20514;-69
2023/09/09 09:53:19;;;;;;;878.35;797.90;;;23.90;75.20;;;;;;5031371;28;20073;-70
2023/09/09 09:55:46;;;;;;;884.97;806.55;;;23.90;75.20;;;;;;5049504;28;20508;-71
2023/09/09 09:58:13;;;;;;;883.25;805.70;;;23.90;75.00;;;;;;5038223;28;20057;-70
2023/09/09 10:00:40;;;;;;;950.28;858.85;;;24.00;75.00;;;;;;5049352;28;20055;-65
2023/09/09 10:03:08;;;;;;;890.47;808.15;;;24.00;74.20;;;;;;5049302;28;20045;-71
2023/09/09 10:05:35;;;;;;;903.55;819.97;;;24.00;73.60;;;;;;5048983;28;20045;-70
2023/09/09 10:08:23;;;;;;;948.13;856.72;;;24.00;73.20;;;;;;5037889;28;20492;-70
2023/09/09 10:11:01;;;;;;;907.38;823.17;;;24.20;72.50;;;;;;5049652;28;20041;-71
2023/09/09 10:13:55;;;;;;;924.05;835.30;;;24.20;72.00;;;;;;5049052;28;20460;-72
2023/09/09 10:16:22;;;;;;;846.72;773.50;;;24.20;71.20;;;;;;5032357;28;20045;-69
2023/09/09 10:18:52;;;;;;;918.38;836.92;;;24.20;71.90;;;;;;5028034;28;20119;-71
2023/09/09 10:21:19;;;;;;;936.17;849.95;;;24.30;71.90;;;;;;5043617;28;20052;-70
2023/09/09 10:23:47;;;;;;;943.70;855.92;;;24.40;72.00;;;;;;5055867;28;20423;-72
2023/09/09 10:26:16;;;;;;;934.95;845.53;;;24.40;72.00;;;;;;5019400;28;20048;-62
2023/09/09 10:28:44;;;;;;;943.90;853.33;;;24.40;71.90;;;;;;5048403;28;20128;-70
2023/09/09 10:31:14;;;;;;;870.63;792.95;;;24.40;71.60;;;;;;5048824;28;20415;-72
2023/09/09 10:33:45;;;;;;;938.47;847.60;;;24.40;71.60;;;;;;5049090;28;20051;-72
2023/09/09 10:36:14;;;;;;;952.28;859.75;;;24.50;71.40;;;;;;5039106;28;20041;-70
2023/09/09 10:38:40;;;;;;;962.25;866.95;;;24.50;70.80;;;;;;5048995;28;20458;-69
2023/09/09 10:41:08;;;;;;;923.17;833.72;;;24.50;71.00;;;;;;5048872;28;20126;-72
2023/09/09 10:43:33;;;;;;;896.95;811.45;;;24.60;70.90;;;;;;5048734;28;20052;-71
2023/09/09 10:45:59;;;;;;;919.85;834.65;;;24.60;70.70;;;;;;5030006;28;20048;-71
2023/09/09 10:48:27;;;;;;;948.13;855.10;;;24.60;70.80;;;;;;5037612;28;20059;-71
2023/09/09 10:50:53;;;;;;;939.35;849.05;;;24.70;70.20;;;;;;5048340;28;20060;-70
2023/09/09 10:53:27;;;;;;;905.55;821.67;;;24.70;69.60;;;;;;5048840;28;20434;-70
2023/09/09 10:55:58;;;;;;;928.83;841.65;;;24.80;69.70;;;;;;5030142;28;20045;-68
2023/09/09 10:58:34;;;;;;;938.10;849.95;;;24.80;68.60;;;;;;5037434;28;20121;-69
2023/09/09 11:01:00;;;;;;;912.25;827.92;;;24.80;67.70;;;;;;5047788;28;20455;-68
2023/09/09 11:03:38;;;;;;;915.72;830.67;;;24.80;68.00;;;;;;5048467;28;20049;-71
2023/09/09 11:06:10;;;;;;;904.40;819.65;;;24.80;68.00;;;;;;5043507;28;20056;-67
2023/09/09 11:08:41;;;;;;;923.85;838.35;;;24.90;68.20;;;;;;5029182;28;20084;-71
2023/09/09 11:11:12;;;;;;;956.20;860.90;;;24.90;68.10;;;;;;5030156;28;20044;-66
2023/09/09 11:13:40;;;;;;;903.28;820.08;;;25.00;67.60;;;;;;5048640;28;20077;-71
2023/09/09 11:16:06;;;;;;;886.88;804.80;;;25.00;67.80;;;;;;5041808;28;20040;-70
2023/09/09 11:18:34;;;;;;;922.00;833.58;;;25.00;67.90;;;;;;5042741;28;20041;-71
2023/09/09 11:21:02;;;;;;;903.60;820.40;;;25.00;67.20;;;;;;5048602;28;20053;-70
2023/09/09 11:23:28;;;;;;;954.90;860.90;;;25.00;67.20;;;;;;5054664;28;20396;-71
2023/09/09 11:25:56;;;;;;;956.00;862.85;;;25.20;66.50;;;;;;5048229;28;20091;-70
2023/09/09 11:28:23;;;;;;;911.63;828.13;;;25.20;65.70;;;;;;5016276;28;20143;-71
2023/09/09 11:30:50;;;;;;;947.00;855.65;;;25.20;66.20;;;;;;5041596;28;20044;-70
2023/09/09 11:33:25;;;;;;;911.22;825.63;;;25.40;66.00;;;;;;5013821;28;20081;-71
2023/09/09 11:35:51;;;;;;;972.78;874.92;;;25.50;65.60;;;;;;5047553;28;20431;-72
2023/09/09 11:38:16;;;;;;;939.05;849.97;;;25.50;66.00;;;;;;5037030;28;20049;-70
2023/09/09 11:40:44;;;;;;;955.40;860.90;;;25.50;65.80;;;;;;5047819;28;20099;-72
2023/09/09 11:43:13;;;;;;;974.13;877.72;;;25.50;65.90;;;;;;5030402;28;20049;-71
2023/09/09 11:45:39;;;;;;;954.05;862.88;;;25.40;66.20;;;;;;5048281;28;20128;-70
2023/09/09 11:48:05;;;;;;;910.33;824.28;;;25.50;66.20;;;;;;5035855;28;20135;-71
2023/09/09 11:50:42;;;;;;;924.15;833.42;;;25.50;65.90;;;;;;5047822;28;20087;-71
2023/09/09 11:53:11;;;;;;;969.55;870.72;;;25.50;65.70;;;;;;5030143;28;20368;-71
2023/09/09 11:55:37;;;;;;;914.33;829.22;;;25.50;65.60;;;;;;5048139;28;20128;-69
2023/09/09 11:58:03;;;;;;;885.20;803.63;;;25.50;65.40;;;;;;5033911;28;20049;-71
2023/09/09 12:00:29;;;;;;;910.88;826.00;;;25.50;65.90;;;;;;5051141;28;20057;-71
2023/09/09 12:02:55;;;;;;;949.28;855.63;;;25.50;65.60;;;;;;5051467;28;20041;-73
2023/09/09 12:05:21;;;;;;;967.90;873.40;;;25.60;65.20;;;;;;5051989;28;20049;-70
2023/09/09 12:07:47;;;;;;;979.63;882.60;;;25.60;65.00;;;;;;5040103;28;20041;-69